Terminal Aerodrome Forecast
Issued by NWS Albany, NY

Home | Current Version | Previous Version | Text Only | Print | Product List | Glossary On
Versions: 1 2 3 4 5 6 7 8 9 10 11 12 13 14 15 16 17 18 19 20 21
158
FTUS41 KALY 200532
TAFALB
TAF
KALB 200532Z 2006/2106 18012KT P6SM BKN200
     FM200900 19013KT P6SM BKN200 WS020/26040KT
     FM201400 25015G25KT P6SM FEW035 BKN150
     FM201800 28016G28KT P6SM FEW035 BKN150
     FM210000 29010KT P6SM BKN035=

USA.gov is the U.S. government's official web portal to all federal, state and local government web resources and services.